Latest Weather Observations for Woomera

IDS60801

Issued at 1:05 pm CDT Thursday 23 October 2014 (issued every 30 minutes, with the page automatically refreshed every 10 minutes)

About weather observations | Map of weather stations | Latest weather observations for SA | Other Formats
Station Details ID: 016001 Name: WOOMERA AERODROME Lat: -31.16 Lon: 136.81 Height: 166.6 m
Data from the previous 72 hours. | See also: Recent months at Woomera
Date/Time
CDT
Temp
°C
App
Temp
°C
Dew
Point
Rel
Hum
%
Delta-T
°C
Wind Press
QNH
hPa
Press
MSL
hPa
Rain
since 9 am
mm
Dir
 
Spd
km/h
Gust
km/h
Spd
kts
Gust
kts
23/01:00pm 31.2 27.6 5.1 19 13.8 NW 13 20 7 11 1015.4 - 0.0
23/12:30pm 29.9 27.3 6.1 22 12.7 NNW 9 17 5 9 1015.9 - 0.0
23/12:00pm 26.3 24.8 10.5 37 8.9 E 9 13 5 7 1016.2 1015.8 0.0
23/11:30am 24.4 23.1 11.3 43 7.4 SSE 9 13 5 7 1016.4 - 0.0
23/11:28am 23.6 22.6 12.3 49 6.5 SSE 9 13 5 7 1016.4 - 0.0
23/11:00am 18.6 19.0 15.2 80 2.0 SSE 7 13 4 7 1016.7 - 0.0
23/10:53am 18.2 19.1 17.5 96 0.4 SE 9 15 5 8 1016.8 - 0.0
23/10:30am 24.3 22.0 10.3 41 7.8 ESE 13 19 7 10 1016.7 - 0.0
23/10:00am 22.0 19.8 10.8 49 6.2 SE 13 19 7 10 1016.9 - 0.0
23/09:30am 20.4 18.1 11.6 57 4.9 SSE 15 19 8 10 1017.1 - 0.0
23/09:00am 18.6 16.0 12.1 66 3.6 SSE 17 20 9 11 1017.1 1016.7 0.0
23/08:30am 17.5 15.0 12.3 71 2.9 SSE 17 20 9 11 1017.2 - 0.0
23/08:00am 16.8 13.9 12.3 75 2.5 SSE 19 22 10 12 1017.1 - 0.0
23/07:30am 16.1 13.3 12.5 79 2.0 SSE 19 24 10 13 1016.9 - 0.0
23/07:00am 15.4 13.3 12.3 82 1.7 SSE 15 20 8 11 1017.0 - 0.0
23/06:30am 15.5 13.0 12.4 82 1.7 SSE 17 22 9 12 1016.9 - 0.0
23/06:00am 15.8 12.9 12.2 79 2.0 SE 19 22 10 12 1016.7 1016.3 0.0
23/05:30am 16.0 12.8 12.0 77 2.2 SSE 20 28 11 15 1016.5 - 0.0
23/05:00am 16.4 13.2 11.8 74 2.5 SSE 20 28 11 15 1016.4 - 0.0
23/04:30am 16.9 13.5 11.2 69 3.1 SSE 20 28 11 15 1016.1 - 0.0
23/04:00am 17.4 14.0 11.2 67 3.4 SSE 20 26 11 14 1016.3 - 0.0
23/03:30am 17.9 14.4 10.9 63 3.8 S 20 26 11 14 1016.5 - 0.0
23/03:00am 18.5 14.9 10.6 60 4.3 SSE 20 26 11 14 1016.8 1016.4 0.0
23/02:30am 19.4 15.4 10.6 56 4.8 SE 22 28 12 15 1016.8 - 0.0
23/02:00am 20.0 16.0 10.5 54 5.2 SSE 22 30 12 16 1017.0 - 0.0
23/01:30am 20.5 16.1 10.4 52 5.5 SSE 24 32 13 17 1017.4 - 0.0
23/01:00am 21.5 16.6 9.9 47 6.3 SSE 26 33 14 18 1017.5 - 0.0
23/12:30am 22.0 18.7 8.2 41 7.3 S 15 20 8 11 1017.9 - 0.0
23/12:00am 22.7 18.5 8.4 40 7.6 S 20 28 11 15 1017.9 1017.5 0.0
 
Date/Time
CDT
Temp
°C
App
Temp
°C
Dew
Point
Rel
Hum
%
Delta-T
°C
Wind Press
QNH
hPa
Press
MSL
hPa
Rain
since 9 am
mm
Dir
 
Spd
km/h
Gust
km/h
Spd
kts
Gust
kts
22/11:30pm 23.5 18.8 7.8 36 8.3 SSE 22 30 12 16 1017.7 - 0.0
22/11:00pm 24.1 19.8 7.9 35 8.6 SSE 20 26 11 14 1017.5 - 0.0
22/10:30pm 24.7 19.6 7.8 34 9.0 SSE 24 32 13 17 1017.5 - 0.0
22/10:00pm 25.6 20.0 7.3 31 9.7 SE 26 33 14 18 1017.5 - 0.0
22/09:30pm 26.8 20.9 7.6 29 10.3 SE 28 35 15 19 1017.3 - 0.0
22/09:00pm 28.0 22.3 2.6 19 12.6 SSE 22 28 12 15 1017.2 1016.8 0.0
22/08:30pm 29.4 24.0 -1.0 14 14.3 WSW 17 20 9 11 1016.5 - 0.0
22/08:00pm 30.9 25.0 -2.6 11 15.5 SW 19 24 10 13 1016.2 - 0.0
22/07:30pm 31.9 25.6 -3.7 10 16.3 SW 20 28 11 15 1015.8 - 0.0
22/07:00pm 32.8 26.0 -4.7 8 17.0 SW 22 28 12 15 1015.5 - 0.0
22/06:30pm 33.6 26.8 -5.5 8 17.6 SW 22 33 12 18 1015.3 - 0.0
22/06:00pm 34.2 27.0 -5.2 8 17.9 SSW 24 28 13 15 1015.2 1014.8 0.0
22/05:30pm 34.4 28.4 -2.8 9 17.6 WSW 19 30 10 16 1015.1 - 0.0
22/05:00pm 34.7 27.8 -2.4 9 17.7 SSW 24 33 13 18 1015.2 - 0.0
22/04:30pm 34.5 28.0 -2.5 9 17.6 W 22 26 12 14 1015.3 - 0.0
22/04:00pm 33.7 28.4 -0.4 11 16.7 WSW 17 30 9 16 1015.5 - 0.0
22/03:30pm 34.5 29.1 -1.0 10 17.3 SSW 17 30 9 16 1015.8 - 0.0
22/03:00pm 33.7 27.8 -2.4 10 17.1 SW 19 30 10 16 1016.0 1015.6 0.0
22/02:30pm 33.1 27.2 -0.7 11 16.4 S 20 28 11 15 1016.4 - 0.0
22/02:00pm 33.0 27.4 1.2 13 15.9 SW 20 30 11 16 1016.9 - 0.0
22/01:30pm 32.4 27.0 1.4 14 15.5 S 19 28 10 15 1017.1 - 0.0
22/01:00pm 31.7 26.4 2.1 15 14.9 SSW 19 28 10 15 1017.3 - 0.0
22/12:30pm 31.0 25.6 2.4 16 14.4 S 20 28 11 15 1017.5 - 0.0
22/12:00pm 30.1 24.8 3.1 18 13.7 SSW 20 28 11 15 1017.8 1017.4 0.0
22/11:30am 29.0 24.1 3.9 20 12.8 SSW 19 28 10 15 1017.9 - 0.0
22/11:00am 27.7 22.8 5.1 23 11.7 SSW 20 28 11 15 1018.1 - 0.0
22/10:30am 26.7 21.5 5.4 25 11.0 S 22 28 12 15 1018.1 - 0.0
22/10:00am 24.9 19.7 5.6 29 9.9 S 22 30 12 16 1018.2 - 0.0
22/09:30am 24.2 18.3 5.9 30 9.4 SSW 26 32 14 17 1018.1 - 0.0
22/09:00am 23.6 18.5 5.8 31 9.1 SSW 22 26 12 14 1018.0 1017.6 0.0
22/08:30am 22.4 16.9 6.1 34 8.3 SSW 24 32 13 17 1017.8 - 0.0
22/08:00am 21.6 16.2 6.5 37 7.7 SSW 24 28 13 15 1017.5 - 0.0
22/07:30am 21.0 15.8 5.3 36 7.8 SSW 22 28 12 15 1017.2 - 0.0
22/07:00am 20.5 15.3 3.6 33 8.1 SW 20 24 11 13 1017.0 - 0.0
22/06:30am 20.9 15.5 2.7 30 8.6 SW 20 26 11 14 1016.7 - 0.0
22/06:00am 21.4 15.1 1.6 27 9.2 SW 24 28 13 15 1016.3 1015.9 0.0
22/05:30am 21.8 15.7 0.2 23 9.8 WSW 22 26 12 14 1016.0 - 0.0
22/05:00am 22.6 16.7 -0.5 21 10.4 WSW 20 24 11 13 1015.9 - 0.0
22/04:30am 23.0 16.9 -2.1 18 11.0 WSW 20 24 11 13 1015.8 - 0.0
22/04:00am 23.4 17.9 -2.0 18 11.2 W 17 20 9 11 1015.5 - 0.0
22/03:30am 24.0 18.1 -2.4 17 11.6 W 19 20 10 11 1015.4 - 0.0
22/03:00am 24.7 20.2 -2.9 16 12.1 W 11 13 6 7 1015.4 1015.0 0.0
22/02:30am 25.8 21.0 -2.5 15 12.6 WNW 13 19 7 10 1015.7 - 0.0
22/02:00am 28.0 21.9 -3.9 12 14.1 N 19 20 10 11 1015.5 - 0.0
22/01:30am 27.5 21.9 -2.8 13 13.6 NNE 17 19 9 10 1015.8 - 0.0
22/01:00am 27.5 22.8 -1.8 14 13.4 NE 13 15 7 8 1016.0 - 0.0
22/12:30am 27.1 21.7 -1.5 15 13.1 NE 17 19 9 10 1016.3 - 0.0
22/12:00am 27.3 22.0 -0.5 16 13.0 ENE 17 20 9 11 1016.6 1016.2 0.0
 
Date/Time
CDT
Temp
°C
App
Temp
°C
Dew
Point
Rel
Hum
%
Delta-T
°C
Wind Press
QNH
hPa
Press
MSL
hPa
Rain
since 9 am
mm
Dir
 
Spd
km/h
Gust
km/h
Spd
kts
Gust
kts
21/11:30pm 28.2 22.2 -1.4 14 13.7 E 20 22 11 12 1016.7 - 0.0
21/11:00pm 28.9 23.0 -1.9 13 14.2 ENE 19 22 10 12 1017.0 - 0.0
21/10:30pm 29.0 24.6 0.2 15 13.8 NE 13 15 7 8 1017.3 - 0.0
21/10:00pm 31.6 27.2 -2.1 11 15.8 N 11 17 6 9 1017.4 - 0.0
21/09:30pm 33.9 30.6 0.1 11 16.7 NNW 7 13 4 7 1017.4 - 0.0
21/09:00pm 34.4 28.6 -4.6 8 17.9 NNW 17 35 9 19 1017.5 1017.1 0.0
21/08:55pm 34.1 24.7 -6.3 7 18.0 N 35 44 19 24 1017.7 - 0.0
21/08:30pm 31.7 26.7 -4.4 9 16.3 NE 13 15 7 8 1016.3 - 0.0
21/08:00pm 32.5 27.7 -5.8 8 17.0 NNE 11 11 6 6 1015.8 - 0.0
21/07:30pm 33.7 28.9 -5.8 7 17.7 NE 11 15 6 8 1015.6 - 0.0
21/07:00pm 35.4 30.2 -6.4 6 18.8 N 13 17 7 9 1015.4 - 0.0
21/06:30pm 36.0 30.8 -6.0 6 19.1 N 13 20 7 11 1015.3 - 0.0
21/06:00pm 36.0 29.5 -8.2 5 19.4 NNE 19 24 10 13 1015.2 1014.8 0.0
21/05:30pm 36.4 29.6 -9.5 5 19.8 N 20 26 11 14 1015.2 - 0.0
21/05:00pm 36.4 31.2 -6.5 6 19.4 N 13 19 7 10 1015.3 - 0.0
21/04:30pm 37.4 30.3 -7.9 5 20.2 NNW 22 30 12 16 1015.6 - 0.0
21/04:00pm 37.3 29.4 -9.2 5 20.3 NNW 26 39 14 21 1015.8 - 0.0
21/03:30pm 37.5 29.9 -10.0 4 20.5 N 24 35 13 19 1016.1 - 0.0
21/03:00pm 37.2 28.3 -11.7 4 20.5 N 30 43 16 23 1016.5 1016.1 0.0
21/02:36pm 37.5 28.9 -14.0 3 20.9 NNW 28 46 15 25 1016.6 - 0.0
21/02:30pm 37.7 28.9 -10.7 4 20.7 N 30 46 16 25 1016.7 - 0.0
21/02:00pm 37.8 28.1 -10.2 4 20.7 N 35 54 19 29 1017.2 - 0.0
21/01:31pm 37.5 28.5 -8.4 5 20.3 NNW 32 50 17 27 1017.5 - 0.0
21/01:30pm 37.1 27.9 -7.9 5 20.0 N 33 50 18 27 1017.5 - 0.0
21/01:02pm 36.3 27.5 -11.1 4 19.9 N 30 48 16 26 1018.0 - 0.0
21/01:00pm 36.7 28.0 -9.0 5 19.9 N 30 44 16 24 1018.0 - 0.0
21/12:30pm 36.0 26.7 -9.2 5 19.5 N 33 48 18 26 1018.4 - 0.0
21/12:00pm 35.6 26.0 -8.7 5 19.2 N 35 43 19 23 1018.9 1018.5 0.0
21/11:30am 35.6 26.3 -9.5 5 19.3 N 33 44 18 24 1019.2 - 0.0
21/11:00am 34.7 25.3 -10.7 5 18.9 N 33 41 18 22 1019.4 - 0.0
21/10:30am 33.4 24.9 -11.1 5 18.2 NNE 28 35 15 19 1019.5 - 0.0
21/10:00am 31.5 22.3 -10.9 6 17.1 NNE 32 39 17 21 1019.1 - 0.0
21/09:30am 30.4 21.6 -11.1 6 16.5 NNE 30 39 16 21 1019.0 - 0.0
21/09:00am 29.0 21.4 -10.0 7 15.6 NNE 24 37 13 20 1019.0 1018.6 0.0
21/08:30am 26.7 20.5 -8.9 9 14.2 NNE 17 22 9 12 1019.0 - 0.0
21/08:00am 23.5 18.2 -6.9 12 12.2 NE 13 17 7 9 1018.9 - 0.0
21/07:30am 21.8 16.2 -6.8 14 11.3 NNE 15 17 8 9 1018.7 - 0.0
21/07:00am 21.0 15.0 -6.8 15 10.9 NE 17 20 9 11 1018.1 - 0.0
21/06:30am 21.2 15.5 -7.4 14 11.1 NNE 15 17 8 9 1017.5 - 0.0
21/06:00am 22.4 16.3 -7.3 13 11.7 NNE 17 19 9 10 1017.2 1016.8 0.0
21/05:30am 22.9 16.4 -8.2 12 12.1 NE 19 20 10 11 1016.8 - 0.0
21/05:00am 22.8 16.7 -7.9 12 12.0 ENE 17 20 9 11 1016.8 - 0.0
21/04:30am 24.0 17.3 -8.4 11 12.7 NE 20 24 11 13 1016.6 - 0.0
21/04:00am 24.2 17.7 -8.3 11 12.8 NE 19 22 10 12 1016.5 - 0.0
21/03:30am 24.5 17.0 -8.6 10 13.0 NE 24 28 13 15 1016.5 - 0.0
21/03:00am 25.1 17.6 -8.5 10 13.3 NE 24 28 13 15 1016.9 1016.5 0.0
21/02:30am 25.0 18.3 -7.6 11 13.1 ENE 20 24 11 13 1017.2 - 0.0
21/02:00am 25.3 17.9 -7.8 10 13.3 ENE 24 28 13 15 1017.4 - 0.0
21/01:30am 24.1 17.6 -7.4 12 12.6 NNE 19 20 10 11 1017.4 - 0.0
21/01:00am 24.5 18.0 -8.0 11 12.9 NNE 19 20 10 11 1017.8 - 0.0
21/12:30am 26.2 19.1 -8.7 9 13.9 NNE 22 26 12 14 1018.0 - 0.0
21/12:13am 26.9 20.1 -8.8 9 14.3 N 20 24 11 13 1018.1 - 0.0
21/12:00am 26.3 20.2 -8.3 9 13.9 NNE 17 20 9 11 1018.2 1017.8 0.0
 
Date/Time
CDT
Temp
°C
App
Temp
°C
Dew
Point
Rel
Hum
%
Delta-T
°C
Wind Press
QNH
hPa
Press
MSL
hPa
Rain
since 9 am
mm
Dir
 
Spd
km/h
Gust
km/h
Spd
kts
Gust
kts
20/11:30pm 26.9 20.3 -8.8 9 14.3 NNE 19 20 10 11 1018.4 - 0.0
20/11:02pm 25.9 19.7 -9.1 9 13.8 NNE 17 19 9 10 1018.4 - 0.0
20/11:00pm 25.9 19.7 -9.1 9 13.8 NNE 17 19 9 10 1018.4 - 0.0
20/10:30pm 27.0 20.7 -9.9 8 14.5 NNE 17 19 9 10 1018.5 - 0.0
20/10:00pm 28.1 21.4 -10.7 7 15.2 NNE 19 20 10 11 1018.4 - 0.0
20/09:30pm 28.6 21.7 -13.7 5 15.8 NE 19 20 10 11 1018.1 - 0.0
20/09:00pm 29.7 22.7 -15.9 4 16.6 NE 19 20 10 11 1017.7 1017.3 0.0
20/08:30pm 30.3 23.2 -16.7 4 17.0 NE 19 20 10 11 1017.4 - 0.0
20/08:00pm 31.0 24.4 -14.5 4 17.2 NE 17 20 9 11 1017.1 - 0.0
20/07:30pm 33.0 27.1 -15.4 4 18.4 NE 13 17 7 9 1016.7 - 0.0
20/07:00pm 35.5 28.6 -22.9 2 20.3 NNE 17 22 9 12 1016.4 - 0.0
20/06:30pm 35.9 28.5 -27.3 1 20.7 N 19 20 10 11 1016.3 - 0.0
20/06:00pm 36.5 29.2 -23.4 1 20.9 N 19 24 10 13 1016.3 1015.9 0.0
20/05:30pm 36.9 29.2 -31.9 1 21.4 N 20 37 11 20 1016.1 - 0.0
20/05:00pm 37.3 28.8 -35.8 0 21.7 N 24 39 13 21 1016.3 - 0.0
20/04:30pm 37.1 28.6 -37.1 0 21.6 N 24 32 13 17 1016.5 - 0.0
20/04:04pm 37.6 28.3 -54.1 0 22.0 N 28 43 15 23 1016.6 - 0.0
20/04:00pm 36.9 30.7 -25.1 1 21.2 NE 13 22 7 12 1016.6 - 0.0
20/03:30pm 37.4 27.8 -39.7 0 21.8 N 30 39 16 21 1017.0 - 0.0
20/03:11pm 36.6 27.5 -27.4 1 21.1 N 28 44 15 24 1017.2 - 0.0
20/03:00pm 37.1 30.3 -20.5 2 21.1 NNE 17 24 9 13 1017.4 1017.0 0.0
20/02:30pm 36.3 29.5 -19.9 2 20.6 N 17 24 9 13 1018.0 - 0.0
20/02:12pm 36.9 27.8 -28.7 1 21.3 N 28 48 15 26 1018.5 - 0.0
20/02:00pm 36.1 27.7 -31.2 1 20.9 N 24 32 13 17 1018.7 - 0.0
20/01:30pm 36.3 27.6 -24.3 1 20.8 NNE 26 39 14 21 1019.1 - 0.0

Other Formats:

Comma delimited format used in spreadsheet applications
http://www.bom.gov.au/fwo/IDS60801/IDS60801.94659.axf

JavaScript Object Notation format (JSON) in row-major order
http://www.bom.gov.au/fwo/IDS60801/IDS60801.94659.json